createdAt,value
2017-10-22T00:00:00.258Z,10.10
2017-10-22T00:01:09.751Z,10.11
2017-10-22T00:02:19.232Z,10.11
2017-10-22T00:03:28.760Z,10.14
2017-10-22T00:04:38.245Z,10.14
2017-10-22T00:05:47.850Z,10.11
2017-10-22T00:06:57.331Z,10.11
2017-10-22T00:08:06.782Z,10.11
2017-10-22T00:09:16.313Z,10.09
2017-10-22T00:10:25.765Z,10.06
2017-10-22T00:11:35.362Z,10.02
2017-10-22T00:12:44.807Z,9.98
2017-10-22T00:13:54.262Z,9.93
2017-10-22T00:15:03.786Z,9.92
2017-10-22T00:16:13.307Z,9.89
2017-10-22T00:17:22.818Z,9.84
2017-10-22T00:18:32.356Z,9.82
2017-10-22T00:19:41.779Z,9.89
2017-10-22T00:20:51.425Z,9.90
2017-10-22T00:22:00.837Z,9.79
2017-10-22T00:23:10.364Z,9.71
2017-10-22T00:24:19.798Z,9.77
2017-10-22T00:25:29.326Z,9.72
2017-10-22T00:26:38.807Z,9.63
2017-10-22T00:27:48.385Z,9.59
2017-10-22T00:28:57.819Z,9.57
2017-10-22T00:30:07.288Z,9.56
2017-10-22T00:31:16.802Z,9.57
2017-10-22T00:32:26.280Z,9.53
2017-10-22T00:33:36.147Z,9.60
2017-10-22T00:34:45.364Z,9.57
2017-10-22T00:35:54.782Z,9.56
2017-10-22T00:37:04.326Z,9.48
2017-10-22T00:38:13.742Z,9.43
2017-10-22T00:39:23.285Z,9.42
2017-10-22T00:40:32.750Z,9.40
2017-10-22T00:41:42.389Z,9.38
2017-10-22T00:42:51.771Z,9.36
2017-10-22T00:44:01.204Z,9.32
2017-10-22T00:45:10.732Z,9.28
2017-10-22T00:46:20.444Z,9.27
2017-10-22T00:47:29.693Z,9.31
2017-10-22T00:48:39.184Z,9.32
2017-10-22T00:49:48.667Z,9.23
2017-10-22T00:50:58.193Z,9.22
2017-10-22T00:52:07.782Z,9.27
2017-10-22T00:53:17.138Z,9.28
2017-10-22T00:54:26.665Z,9.31
2017-10-22T00:55:36.094Z,9.30
2017-10-22T00:56:45.807Z,9.28
2017-10-22T00:57:55.061Z,9.22
2017-10-22T00:59:04.585Z,9.15
2017-10-22T01:00:14.054Z,9.18
2017-10-22T01:01:23.625Z,9.07
2017-10-22T01:02:33.071Z,9.07
2017-10-22T01:03:42.509Z,9.09
2017-10-22T01:04:52.027Z,9.02
2017-10-22T01:06:01.473Z,8.97
2017-10-22T01:07:10.939Z,9.02
2017-10-22T01:08:20.517Z,9.00
2017-10-22T01:09:29.953Z,8.97
2017-10-22T01:10:39.584Z,9.06
2017-10-22T01:11:48.929Z,9.06
2017-10-22T01:12:58.434Z,9.01
2017-10-22T01:14:07.865Z,9.01
2017-10-22T01:15:17.394Z,9.00
2017-10-22T01:16:27.004Z,8.93
2017-10-22T01:17:36.425Z,8.92
2017-10-22T01:18:45.745Z,8.93
2017-10-22T01:19:55.309Z,9.01
2017-10-22T01:21:04.758Z,9.03
2017-10-22T01:22:14.277Z,9.02
2017-10-22T01:23:23.701Z,9.02
2017-10-22T01:24:33.229Z,9.05
2017-10-22T01:25:42.654Z,9.11
2017-10-22T01:26:52.376Z,9.11
2017-10-22T01:28:01.719Z,9.09
2017-10-22T01:29:11.140Z,9.06
2017-10-22T01:30:20.613Z,9.14
2017-10-22T01:31:30.119Z,9.11
2017-10-22T01:32:39.635Z,9.14
2017-10-22T01:33:49.063Z,9.17
2017-10-22T01:34:58.533Z,9.15
2017-10-22T01:36:08.049Z,9.06
2017-10-22T01:37:17.549Z,9.06
2017-10-22T01:38:26.988Z,9.05
2017-10-22T01:39:36.456Z,9.06
2017-10-22T01:40:46.044Z,9.03
2017-10-22T01:41:55.487Z,9.05
2017-10-22T01:43:04.994Z,9.10
2017-10-22T01:44:14.431Z,9.17
2017-10-22T01:45:23.883Z,9.27
2017-10-22T01:46:33.925Z,9.28
2017-10-22T01:47:42.862Z,9.31
2017-10-22T01:48:52.346Z,9.38
2017-10-22T01:50:01.947Z,9.48
2017-10-22T01:51:11.425Z,9.55
2017-10-22T01:52:20.837Z,9.57
2017-10-22T01:53:30.366Z,9.63
2017-10-22T01:54:39.795Z,9.68
2017-10-22T01:55:49.320Z,9.68
2017-10-22T01:56:58.776Z,9.72
2017-10-22T01:58:08.243Z,9.73
2017-10-22T01:59:17.727Z,9.77
2017-10-22T02:00:27.237Z,9.72
2017-10-22T02:01:36.782Z,9.71
2017-10-22T02:02:46.201Z,9.73
2017-10-22T02:03:55.726Z,9.72
2017-10-22T02:05:05.257Z,9.68
2017-10-22T02:06:14.699Z,9.57
2017-10-22T02:07:24.219Z,9.47
2017-10-22T02:08:33.663Z,9.38
2017-10-22T02:09:43.173Z,9.30
2017-10-22T02:10:52.702Z,9.23
2017-10-22T02:12:02.317Z,9.22
2017-10-22T02:13:11.665Z,9.22
2017-10-22T02:14:21.107Z,9.23
2017-10-22T02:15:30.698Z,9.27
2017-10-22T02:16:41.096Z,9.27
2017-10-22T02:17:49.602Z,9.26
2017-10-22T02:18:59.085Z,9.28
2017-10-22T02:20:08.647Z,9.27
2017-10-22T02:21:18.061Z,9.26
2017-10-22T02:22:27.597Z,9.23
2017-10-22T02:23:37.002Z,9.22
2017-10-22T02:24:46.560Z,9.21
2017-10-22T02:25:55.982Z,9.22
2017-10-22T02:27:05.500Z,9.23
2017-10-22T02:28:14.951Z,9.31
2017-10-22T02:29:24.477Z,9.40
2017-10-22T02:30:34.005Z,9.47
2017-10-22T02:31:43.448Z,9.53
2017-10-22T02:32:52.917Z,9.55
2017-10-22T02:34:02.504Z,9.52
2017-10-22T02:35:11.926Z,9.53
2017-10-22T02:36:21.411Z,9.55
2017-10-22T02:37:30.885Z,9.57
2017-10-22T02:38:40.415Z,9.57
2017-10-22T02:39:50.017Z,9.56
2017-10-22T02:40:59.374Z,9.50
2017-10-22T02:42:09.156Z,9.40
2017-10-22T02:43:18.432Z,9.38
2017-10-22T02:44:27.833Z,9.39
2017-10-22T02:45:37.335Z,9.25
2017-10-22T02:46:47.052Z,9.27
2017-10-22T02:47:56.313Z,9.30
2017-10-22T02:49:05.877Z,9.35
2017-10-22T02:50:15.310Z,9.43
2017-10-22T02:51:24.850Z,9.51
2017-10-22T02:52:34.370Z,9.59
2017-10-22T02:53:43.754Z,9.61
2017-10-22T02:54:53.324Z,9.65
2017-10-22T02:56:02.832Z,9.61
2017-10-22T02:57:12.387Z,9.52
2017-10-22T02:58:21.813Z,9.52
2017-10-22T02:59:31.244Z,9.56
2017-10-22T03:00:40.714Z,9.60
2017-10-22T03:01:50.232Z,9.65
2017-10-22T03:02:59.731Z,9.67
2017-10-22T03:04:09.201Z,9.64
2017-10-22T03:05:18.697Z,9.63
2017-10-22T03:06:28.197Z,9.67
2017-10-22T03:07:37.757Z,9.68
2017-10-22T03:08:47.176Z,9.71
2017-10-22T03:09:56.669Z,9.72
2017-10-22T03:11:06.242Z,9.73
2017-10-22T03:12:15.695Z,9.72
2017-10-22T03:13:25.148Z,9.72
2017-10-22T03:14:34.727Z,9.71
2017-10-22T03:15:44.161Z,9.72
2017-10-22T03:16:53.649Z,9.79
2017-10-22T03:18:03.131Z,9.79
2017-10-22T03:19:12.656Z,9.79
2017-10-22T03:20:22.180Z,9.80
2017-10-22T03:21:31.721Z,9.84
2017-10-22T03:22:41.208Z,9.85
2017-10-22T03:23:50.663Z,9.86
2017-10-22T03:25:00.193Z,9.88
2017-10-22T03:26:09.622Z,9.88
2017-10-22T03:27:19.166Z,9.89
2017-10-22T03:28:29.609Z,9.89
2017-10-22T03:29:38.118Z,9.89
2017-10-22T03:30:47.647Z,9.89
2017-10-22T03:31:57.142Z,9.89
2017-10-22T03:33:06.699Z,9.89
2017-10-22T03:34:16.118Z,9.88
2017-10-22T03:35:25.660Z,9.85
2017-10-22T03:36:35.135Z,9.72
2017-10-22T03:37:44.619Z,9.56
2017-10-22T03:38:54.149Z,9.43
2017-10-22T03:40:03.617Z,9.30
2017-10-22T03:41:13.114Z,9.18
2017-10-22T03:42:22.667Z,9.05
2017-10-22T03:43:32.167Z,8.94
2017-10-22T03:44:41.574Z,9.02
2017-10-22T03:45:51.128Z,9.10
2017-10-22T03:47:00.673Z,9.22
2017-10-22T03:48:10.091Z,9.19
2017-10-22T03:49:19.554Z,9.30
2017-10-22T03:50:29.031Z,9.31
2017-10-22T03:51:38.535Z,9.35
2017-10-22T03:52:48.003Z,9.43
2017-10-22T03:53:57.541Z,9.48
2017-10-22T03:55:07.986Z,9.51
2017-10-22T03:56:16.568Z,9.53
2017-10-22T03:57:26.042Z,9.57
2017-10-22T03:58:35.552Z,9.60
2017-10-22T03:59:45.057Z,9.63
2017-10-22T04:00:54.584Z,9.65
2017-10-22T04:02:03.963Z,9.64
2017-10-22T04:03:13.433Z,9.59
2017-10-22T04:04:23.999Z,9.48
2017-10-22T04:05:32.426Z,9.39
2017-10-22T04:06:41.976Z,9.36
2017-10-22T04:07:51.490Z,9.39
2017-10-22T04:09:00.921Z,9.27
2017-10-22T04:10:10.450Z,9.15
2017-10-22T04:11:19.980Z,9.02
2017-10-22T04:12:29.431Z,8.97
2017-10-22T04:13:38.940Z,8.93
2017-10-22T04:14:48.439Z,8.96
2017-10-22T04:15:57.854Z,9.02
2017-10-22T04:17:07.606Z,9.02
2017-10-22T04:18:16.858Z,9.02
2017-10-22T04:19:26.385Z,8.94
2017-10-22T04:20:35.812Z,8.97
2017-10-22T04:21:45.357Z,9.02
2017-10-22T04:22:54.771Z,9.06
2017-10-22T04:24:04.377Z,9.01
2017-10-22T04:25:13.740Z,8.86
2017-10-22T04:26:23.264Z,8.72
2017-10-22T04:27:32.809Z,8.71
2017-10-22T04:28:42.216Z,8.68
2017-10-22T04:29:51.687Z,8.63
2017-10-22T04:31:01.145Z,8.61
2017-10-22T04:32:11.649Z,8.55
2017-10-22T04:33:20.209Z,8.53
2017-10-22T04:34:29.663Z,8.52
2017-10-22T04:35:39.099Z,8.59
2017-10-22T04:36:48.595Z,8.56
2017-10-22T04:37:58.049Z,8.60
2017-10-22T04:39:07.587Z,8.56
2017-10-22T04:40:17.083Z,8.57
2017-10-22T04:41:26.538Z,8.61
2017-10-22T04:42:36.356Z,8.61
2017-10-22T04:43:45.439Z,8.60
2017-10-22T04:44:54.930Z,8.59
2017-10-22T04:46:04.456Z,8.53
2017-10-22T04:47:13.908Z,8.56
2017-10-22T04:48:23.416Z,8.63
2017-10-22T04:49:32.862Z,8.57
2017-10-22T04:50:42.317Z,8.63
2017-10-22T04:51:51.819Z,8.63
2017-10-22T04:53:01.332Z,8.55
2017-10-22T04:54:10.760Z,8.57
2017-10-22T04:55:20.394Z,8.56
2017-10-22T04:56:29.721Z,8.61
2017-10-22T04:57:39.340Z,8.60
2017-10-22T04:58:48.662Z,8.56
2017-10-22T04:59:58.211Z,8.56
2017-10-22T05:01:07.646Z,8.59
2017-10-22T05:02:17.125Z,8.57
2017-10-22T05:03:26.611Z,8.63
2017-10-22T05:04:36.059Z,8.65
2017-10-22T05:05:45.516Z,8.53
2017-10-22T05:06:55.100Z,8.48
2017-10-22T05:08:04.478Z,8.44
2017-10-22T05:09:13.960Z,8.38
2017-10-22T05:10:23.469Z,8.34
2017-10-22T05:11:32.997Z,8.35
2017-10-22T05:12:42.400Z,8.25
2017-10-22T05:13:51.856Z,8.23
2017-10-22T05:15:01.328Z,8.13
2017-10-22T05:16:10.814Z,8.07
2017-10-22T05:17:20.374Z,8.06
2017-10-22T05:18:29.785Z,7.98
2017-10-22T05:19:39.235Z,7.86
2017-10-22T05:20:48.690Z,7.77
2017-10-22T05:21:58.190Z,7.65
2017-10-22T05:23:07.697Z,7.57
2017-10-22T05:24:17.193Z,7.55
2017-10-22T05:25:26.645Z,7.71
2017-10-22T05:26:36.084Z,7.76
2017-10-22T05:27:45.535Z,7.80
2017-10-22T05:28:55.041Z,7.92
2017-10-22T05:30:04.471Z,7.96
2017-10-22T05:31:13.894Z,7.96
2017-10-22T05:32:23.521Z,8.01
2017-10-22T05:33:32.810Z,8.00
2017-10-22T05:34:42.281Z,7.98
2017-10-22T05:35:51.806Z,8.00
2017-10-22T05:37:01.223Z,8.05
2017-10-22T05:38:10.667Z,8.11
2017-10-22T05:39:21.120Z,8.18
2017-10-22T05:40:29.624Z,8.18
2017-10-22T05:41:39.056Z,8.21
2017-10-22T05:42:48.595Z,8.21
2017-10-22T05:43:57.993Z,8.31
2017-10-22T05:45:07.468Z,8.35
2017-10-22T05:46:16.929Z,8.25
2017-10-22T05:47:26.681Z,8.30
2017-10-22T05:48:36.513Z,8.27
2017-10-22T05:49:45.352Z,8.28
2017-10-22T05:50:55.808Z,8.25
2017-10-22T05:52:04.344Z,8.19
2017-10-22T05:53:13.770Z,8.10
2017-10-22T05:54:23.238Z,8.06
2017-10-22T05:55:32.705Z,8.15
2017-10-22T05:56:42.233Z,8.15
2017-10-22T05:57:51.841Z,8.05
2017-10-22T05:59:01.188Z,8.06
2017-10-22T06:00:10.619Z,8.19
2017-10-22T06:01:20.072Z,8.32
2017-10-22T06:02:29.579Z,8.42
2017-10-22T06:03:39.104Z,8.52
2017-10-22T06:04:48.535Z,8.64
2017-10-22T06:05:57.965Z,8.72
2017-10-22T06:07:07.673Z,8.77
2017-10-22T06:08:16.924Z,8.84
2017-10-22T06:09:26.653Z,8.88
2017-10-22T06:10:35.885Z,8.89
2017-10-22T06:11:45.354Z,8.89
2017-10-22T06:12:54.869Z,8.90
2017-10-22T06:14:04.326Z,8.90
2017-10-22T06:15:13.793Z,8.92
2017-10-22T06:16:23.333Z,8.92
2017-10-22T06:17:32.787Z,8.93
2017-10-22T06:18:42.290Z,8.97
2017-10-22T06:19:51.757Z,8.97
2017-10-22T06:21:01.257Z,8.98
2017-10-22T06:22:10.789Z,9.03
2017-10-22T06:23:20.202Z,9.06
2017-10-22T06:24:29.730Z,9.06
2017-10-22T06:25:39.573Z,9.13
2017-10-22T06:26:48.691Z,9.14
2017-10-22T06:27:58.476Z,9.15
2017-10-22T06:29:07.692Z,9.14
2017-10-22T06:30:17.185Z,9.15
2017-10-22T06:31:26.672Z,9.15
2017-10-22T06:32:36.342Z,9.18
2017-10-22T06:33:45.675Z,9.22
2017-10-22T06:34:55.279Z,9.30
2017-10-22T06:36:04.729Z,9.32
2017-10-22T06:37:14.179Z,9.39
2017-10-22T06:38:23.686Z,9.42
2017-10-22T06:39:33.216Z,9.47
2017-10-22T06:40:42.662Z,9.48
2017-10-22T06:41:52.174Z,9.52
2017-10-22T06:43:02.232Z,9.53
2017-10-22T06:44:11.235Z,9.60
2017-10-22T06:45:20.764Z,9.68
2017-10-22T06:46:30.380Z,9.72
2017-10-22T06:47:39.739Z,9.76
2017-10-22T06:48:49.255Z,9.82
2017-10-22T06:49:58.784Z,9.85
2017-10-22T06:51:08.314Z,9.96
2017-10-22T06:52:18.030Z,10.05
2017-10-22T06:53:27.383Z,10.14
2017-10-22T06:54:36.848Z,10.22
2017-10-22T06:55:46.436Z,10.27
2017-10-22T06:56:55.966Z,10.35
2017-10-22T06:58:05.521Z,10.39
2017-10-22T06:59:15.028Z,10.48
2017-10-22T07:00:24.563Z,10.56
2017-10-22T07:01:34.045Z,10.63
2017-10-22T07:02:43.617Z,10.64
2017-10-22T07:03:53.226Z,10.67
2017-10-22T07:05:02.683Z,10.69
2017-10-22T07:06:12.313Z,10.75
2017-10-22T07:07:21.805Z,10.84
2017-10-22T07:08:31.352Z,10.88
2017-10-22T07:09:40.876Z,10.93
2017-10-22T07:10:50.439Z,10.97
2017-10-22T07:12:00.077Z,11.00
2017-10-22T07:13:09.795Z,11.02
2017-10-22T07:14:19.138Z,11.07
2017-10-22T07:15:28.661Z,11.13
2017-10-22T07:16:39.418Z,11.15
2017-10-22T07:17:47.813Z,11.19
2017-10-22T07:18:57.357Z,11.22
2017-10-22T07:20:06.987Z,11.27
2017-10-22T07:21:16.525Z,11.35
2017-10-22T07:22:26.185Z,11.40
2017-10-22T07:23:35.681Z,11.43
2017-10-22T07:24:45.213Z,11.39
2017-10-22T07:25:55.769Z,11.40
2017-10-22T07:27:04.359Z,11.36
2017-10-22T07:28:14.026Z,11.34
2017-10-22T07:29:23.539Z,11.35
2017-10-22T07:30:33.168Z,11.39
2017-10-22T07:31:42.676Z,11.38
2017-10-22T07:32:52.330Z,11.31
2017-10-22T07:34:01.805Z,11.28
2017-10-22T07:35:11.369Z,11.30
2017-10-22T07:36:20.971Z,11.34
2017-10-22T07:37:30.621Z,11.34
2017-10-22T07:38:40.096Z,11.34
2017-10-22T07:39:49.724Z,11.30
2017-10-22T07:40:59.457Z,11.34
2017-10-22T07:42:08.887Z,11.31
2017-10-22T07:43:18.416Z,11.35
2017-10-22T07:44:27.975Z,11.35
2017-10-22T07:45:37.579Z,11.38
2017-10-22T07:46:47.216Z,11.39
2017-10-22T07:47:56.756Z,11.38
2017-10-22T07:49:06.378Z,11.36
2017-10-22T07:50:15.981Z,11.39
2017-10-22T07:51:25.540Z,11.35
2017-10-22T07:52:35.175Z,11.32
2017-10-22T07:53:44.600Z,11.26
2017-10-22T07:54:54.235Z,11.23
2017-10-22T07:56:03.749Z,11.22
2017-10-22T07:57:13.393Z,11.21
2017-10-22T07:58:23.114Z,11.15
2017-10-22T07:59:32.458Z,11.13
2017-10-22T08:00:42.036Z,11.06
2017-10-22T08:01:51.621Z,11.05
2017-10-22T08:03:01.780Z,11.02
2017-10-22T08:04:10.782Z,11.00
2017-10-22T08:05:20.297Z,10.98
2017-10-22T08:06:29.852Z,10.93
2017-10-22T08:07:39.451Z,10.90
2017-10-22T08:08:49.013Z,10.93
2017-10-22T08:09:58.647Z,10.93
2017-10-22T08:11:08.105Z,10.98
2017-10-22T08:12:17.666Z,11.02
2017-10-22T08:13:28.276Z,11.06
2017-10-22T08:14:36.791Z,11.02
2017-10-22T08:15:46.347Z,11.02
2017-10-22T08:16:55.897Z,11.02
2017-10-22T08:18:05.572Z,11.02
2017-10-22T08:19:15.087Z,11.02
2017-10-22T08:20:24.582Z,11.06
2017-10-22T08:21:34.149Z,11.07
2017-10-22T08:22:43.965Z,11.10
2017-10-22T08:23:53.257Z,11.14
2017-10-22T08:25:03.353Z,11.23
2017-10-22T08:26:12.408Z,11.34
2017-10-22T08:27:22.009Z,11.40
2017-10-22T08:28:31.653Z,11.42
2017-10-22T08:29:41.137Z,11.43
2017-10-22T08:30:50.679Z,11.51
2017-10-22T08:32:00.246Z,11.50
2017-10-22T08:33:09.842Z,11.47
2017-10-22T08:34:19.501Z,11.52
2017-10-22T08:35:28.988Z,11.50
2017-10-22T08:36:38.556Z,11.53
2017-10-22T08:37:48.203Z,11.63
2017-10-22T08:38:57.932Z,11.61
2017-10-22T08:40:07.313Z,11.60
2017-10-22T08:41:16.881Z,11.60
2017-10-22T08:42:26.514Z,11.61
2017-10-22T08:43:36.074Z,11.56
2017-10-22T08:44:45.605Z,11.51
2017-10-22T08:45:55.207Z,11.53
2017-10-22T08:47:04.767Z,11.56
2017-10-22T08:48:14.406Z,11.56
2017-10-22T08:49:23.920Z,11.52
2017-10-22T08:50:33.510Z,11.56
2017-10-22T08:51:43.166Z,11.55
2017-10-22T08:52:52.881Z,11.53
2017-10-22T08:54:02.231Z,11.53
2017-10-22T08:55:11.824Z,11.57
2017-10-22T08:56:21.394Z,11.67
2017-10-22T08:57:31.024Z,11.68
2017-10-22T08:58:40.740Z,11.68
2017-10-22T08:59:50.188Z,11.64
2017-10-22T09:00:59.719Z,11.64
2017-10-22T09:02:09.425Z,11.64
2017-10-22T09:03:18.905Z,11.65
2017-10-22T09:04:28.515Z,11.64
2017-10-22T09:05:38.148Z,11.63
2017-10-22T09:06:48.600Z,11.60
2017-10-22T09:07:57.206Z,11.56
2017-10-22T09:09:06.770Z,11.57
2017-10-22T09:10:16.371Z,11.56
2017-10-22T09:11:25.916Z,11.55
2017-10-22T09:12:35.609Z,11.51
2017-10-22T09:13:45.576Z,11.52
2017-10-22T09:14:54.696Z,11.60
2017-10-22T09:16:04.229Z,11.67
2017-10-22T09:17:13.861Z,11.68
2017-10-22T09:18:23.393Z,11.61
2017-10-22T09:19:32.944Z,11.69
2017-10-22T09:20:42.564Z,11.68
2017-10-22T09:21:52.188Z,11.67
2017-10-22T09:23:01.734Z,11.69
2017-10-22T09:24:11.261Z,11.81
2017-10-22T09:25:20.955Z,11.89
2017-10-22T09:26:30.513Z,11.81
2017-10-22T09:27:40.044Z,11.85
2017-10-22T09:28:50.628Z,11.84
2017-10-22T09:29:59.207Z,11.80
2017-10-22T09:31:08.839Z,11.73
2017-10-22T09:32:18.373Z,11.75
2017-10-22T09:33:27.969Z,11.76
2017-10-22T09:34:37.533Z,11.72
2017-10-22T09:35:47.120Z,11.69
2017-10-22T09:36:56.697Z,11.71
2017-10-22T09:38:06.294Z,11.79
2017-10-22T09:39:16.065Z,11.81
2017-10-22T09:40:25.493Z,11.82
2017-10-22T09:41:35.025Z,11.81
2017-10-22T09:42:44.658Z,11.84
2017-10-22T09:43:54.203Z,11.85
2017-10-22T09:45:03.820Z,11.90
2017-10-22T09:46:13.425Z,11.92
2017-10-22T09:47:23.289Z,12.01
2017-10-22T09:48:32.742Z,12.07
2017-10-22T09:49:42.146Z,12.11
2017-10-22T09:50:51.699Z,12.13
2017-10-22T09:52:01.278Z,12.11
2017-10-22T09:53:12.392Z,12.07
2017-10-22T09:54:20.585Z,12.06
2017-10-22T09:55:30.056Z,11.97
2017-10-22T09:56:39.648Z,11.96
2017-10-22T09:57:49.272Z,11.97
2017-10-22T09:58:58.853Z,11.96
2017-10-22T10:00:08.422Z,11.89
2017-10-22T10:01:18.034Z,11.89
2017-10-22T10:02:27.774Z,11.89
2017-10-22T10:03:37.245Z,11.90
2017-10-22T10:04:46.936Z,11.89
2017-10-22T10:05:56.390Z,11.92
2017-10-22T10:07:05.954Z,11.82
2017-10-22T10:08:15.553Z,11.76
2017-10-22T10:09:26.109Z,11.71
2017-10-22T10:10:34.719Z,11.73
2017-10-22T10:11:44.351Z,11.77
2017-10-22T10:12:53.885Z,11.81
2017-10-22T10:14:03.533Z,11.81
2017-10-22T10:15:13.051Z,11.85
2017-10-22T10:16:22.679Z,11.92
2017-10-22T10:17:32.206Z,11.96
2017-10-22T10:18:41.858Z,11.93
2017-10-22T10:19:51.371Z,11.88
2017-10-22T10:21:00.941Z,11.85
2017-10-22T10:22:10.534Z,11.89
2017-10-22T10:23:20.424Z,11.89
2017-10-22T10:24:29.704Z,11.80
2017-10-22T10:25:39.266Z,11.72
2017-10-22T10:26:48.945Z,11.64
2017-10-22T10:27:58.495Z,11.68
2017-10-22T10:29:08.046Z,11.65
2017-10-22T10:30:17.655Z,11.63
2017-10-22T10:31:27.147Z,11.55
2017-10-22T10:32:36.720Z,11.43
2017-10-22T10:33:46.372Z,11.43
2017-10-22T10:34:55.886Z,11.39
2017-10-22T10:36:05.513Z,11.32
2017-10-22T10:37:15.057Z,11.27
2017-10-22T10:38:24.596Z,11.21
2017-10-22T10:39:34.310Z,11.18
2017-10-22T10:40:43.738Z,11.19
2017-10-22T10:41:53.268Z,11.18
2017-10-22T10:43:02.760Z,11.11
2017-10-22T10:44:12.351Z,11.15
2017-10-22T10:45:21.873Z,11.18
2017-10-22T10:46:31.429Z,11.15
2017-10-22T10:47:41.022Z,11.18
2017-10-22T10:48:50.557Z,11.19
2017-10-22T10:50:00.185Z,11.22
2017-10-22T10:51:09.716Z,11.31
2017-10-22T10:52:19.322Z,11.32
2017-10-22T10:53:28.962Z,11.27
2017-10-22T10:54:38.325Z,11.25
2017-10-22T10:55:47.940Z,11.22
2017-10-22T10:56:57.441Z,11.13
2017-10-22T10:58:07.005Z,11.14
2017-10-22T10:59:16.651Z,11.18
2017-10-22T11:00:26.165Z,11.22
2017-10-22T11:01:35.697Z,11.25
2017-10-22T11:02:45.232Z,11.25
2017-10-22T11:03:54.802Z,11.26
2017-10-22T11:05:04.388Z,11.15
2017-10-22T11:06:13.922Z,11.15
2017-10-22T11:07:23.455Z,11.14
2017-10-22T11:08:34.035Z,11.19
2017-10-22T11:09:42.611Z,11.21
2017-10-22T11:10:52.144Z,11.18
2017-10-22T11:12:01.775Z,11.13
2017-10-22T11:13:11.307Z,11.09
2017-10-22T11:14:20.854Z,11.10
2017-10-22T11:15:30.443Z,11.14
2017-10-22T11:16:40.001Z,11.11
2017-10-22T11:17:49.530Z,11.14
2017-10-22T11:18:59.027Z,11.11
2017-10-22T11:20:08.595Z,11.10
2017-10-22T11:21:18.097Z,11.06
2017-10-22T11:22:27.755Z,10.98
2017-10-22T11:23:37.302Z,10.90
2017-10-22T11:24:46.737Z,10.85
2017-10-22T11:25:56.350Z,10.81
2017-10-22T11:27:05.955Z,10.80
2017-10-22T11:28:15.592Z,10.76
2017-10-22T11:29:24.958Z,10.72
2017-10-22T11:30:34.428Z,10.69
2017-10-22T11:31:44.001Z,10.68
2017-10-22T11:32:53.503Z,10.64
2017-10-22T11:34:03.063Z,10.71
2017-10-22T11:35:12.594Z,10.79
2017-10-22T11:36:22.124Z,10.89
2017-10-22T11:37:31.806Z,10.94
2017-10-22T11:38:41.238Z,11.01
2017-10-22T11:39:50.750Z,11.03
2017-10-22T11:41:00.345Z,11.05
2017-10-22T11:42:09.874Z,11.05
2017-10-22T11:43:19.592Z,10.98
2017-10-22T11:44:29.054Z,10.93
2017-10-22T11:45:38.495Z,10.93
2017-10-22T11:46:48.098Z,10.92
2017-10-22T11:47:57.576Z,10.88
2017-10-22T11:49:07.177Z,10.85
2017-10-22T11:50:17.065Z,10.82
2017-10-22T11:51:26.322Z,10.80
2017-10-22T11:52:35.853Z,10.76
2017-10-22T11:53:45.335Z,10.69
2017-10-22T11:54:54.915Z,10.65
2017-10-22T11:56:04.519Z,10.64
2017-10-22T11:57:13.976Z,10.63
2017-10-22T11:58:23.551Z,10.64
2017-10-22T11:59:33.051Z,10.65
2017-10-22T12:00:42.573Z,10.64
2017-10-22T12:01:52.101Z,10.65
2017-10-22T12:03:01.647Z,10.68
2017-10-22T12:04:11.445Z,10.71
2017-10-22T12:05:20.730Z,10.67
2017-10-22T12:06:30.262Z,10.68
2017-10-22T12:07:39.852Z,10.69
2017-10-22T12:08:49.399Z,10.68
2017-10-22T12:09:58.913Z,10.68
2017-10-22T12:11:08.443Z,10.65
2017-10-22T12:12:17.978Z,10.67
2017-10-22T12:13:27.510Z,10.67
2017-10-22T12:14:37.057Z,10.68
2017-10-22T12:15:46.666Z,10.64
2017-10-22T12:16:56.274Z,10.63
2017-10-22T12:18:05.729Z,10.63
2017-10-22T12:19:15.192Z,10.63
2017-10-22T12:20:24.789Z,10.64
2017-10-22T12:21:35.245Z,10.64
2017-10-22T12:22:43.851Z,10.65
2017-10-22T12:23:53.340Z,10.64
2017-10-22T12:25:02.859Z,10.63
2017-10-22T12:26:12.387Z,10.56
2017-10-22T12:27:21.974Z,10.55
2017-10-22T12:28:31.521Z,10.56
2017-10-22T12:29:41.055Z,10.57
2017-10-22T12:30:50.533Z,10.60
2017-10-22T12:32:00.055Z,10.60
2017-10-22T12:33:09.587Z,10.67
2017-10-22T12:34:19.184Z,10.68
2017-10-22T12:35:28.655Z,10.72
2017-10-22T12:36:38.193Z,10.69
2017-10-22T12:37:47.751Z,10.72
2017-10-22T12:38:57.572Z,10.76
2017-10-22T12:40:06.811Z,10.80
2017-10-22T12:41:16.341Z,10.79
2017-10-22T12:42:25.970Z,10.80
2017-10-22T12:43:35.499Z,10.80
2017-10-22T12:44:45.033Z,10.72
2017-10-22T12:45:54.498Z,10.71
2017-10-22T12:47:04.092Z,10.72
2017-10-22T12:48:13.573Z,10.73
2017-10-22T12:49:23.168Z,10.73
2017-10-22T12:50:32.680Z,10.67
2017-10-22T12:51:42.213Z,10.64
2017-10-22T12:52:51.847Z,10.64
2017-10-22T12:54:01.302Z,10.69
2017-10-22T12:55:10.823Z,10.68
2017-10-22T12:56:20.435Z,10.64
2017-10-22T12:57:29.970Z,10.69
2017-10-22T12:58:39.515Z,10.68
2017-10-22T12:59:49.048Z,10.65
2017-10-22T13:00:58.508Z,10.67
2017-10-22T13:02:08.088Z,10.60
2017-10-22T13:03:17.622Z,10.57
2017-10-22T13:04:27.169Z,10.59
2017-10-22T13:05:36.758Z,10.56
2017-10-22T13:06:46.195Z,10.56
2017-10-22T13:07:55.742Z,10.55
2017-10-22T13:09:05.294Z,10.59
2017-10-22T13:10:14.802Z,10.60
2017-10-22T13:11:24.343Z,10.56
2017-10-22T13:12:33.966Z,10.56
2017-10-22T13:13:43.495Z,10.56
2017-10-22T13:14:52.937Z,10.56
2017-10-22T13:16:02.470Z,10.56
2017-10-22T13:17:12.086Z,10.53
2017-10-22T13:18:21.538Z,10.56
2017-10-22T13:19:31.342Z,10.56
2017-10-22T13:20:40.605Z,10.59
2017-10-22T13:21:50.147Z,10.61
2017-10-22T13:22:59.738Z,10.65
2017-10-22T13:24:09.798Z,10.65
2017-10-22T13:25:18.800Z,10.64
2017-10-22T13:26:28.332Z,10.65
2017-10-22T13:27:37.862Z,10.68
2017-10-22T13:28:47.413Z,10.65
2017-10-22T13:29:56.896Z,10.65
2017-10-22T13:31:06.454Z,10.65
2017-10-22T13:32:15.983Z,10.67
2017-10-22T13:33:25.520Z,10.63
2017-10-22T13:34:35.331Z,10.60
2017-10-22T13:35:44.592Z,10.57
2017-10-22T13:36:54.208Z,10.55
2017-10-22T13:38:04.659Z,10.53
2017-10-22T13:39:13.453Z,10.55
2017-10-22T13:40:22.741Z,10.47
2017-10-22T13:41:32.330Z,10.43
2017-10-22T13:42:41.827Z,10.39
2017-10-22T13:43:51.358Z,10.38
2017-10-22T13:45:00.920Z,10.36
2017-10-22T13:46:10.458Z,10.34
2017-10-22T13:47:19.981Z,10.31
2017-10-22T13:48:29.512Z,10.35
2017-10-22T13:49:39.058Z,10.35
2017-10-22T13:50:48.516Z,10.39
2017-10-22T13:51:58.103Z,10.38
2017-10-22T13:53:07.565Z,10.36
2017-10-22T13:54:17.180Z,10.38
2017-10-22T13:55:26.694Z,10.36
2017-10-22T13:56:36.225Z,10.36
2017-10-22T13:57:45.754Z,10.35
2017-10-22T13:58:55.305Z,10.34
2017-10-22T14:00:04.820Z,10.35
2017-10-22T14:01:14.262Z,10.31
2017-10-22T14:02:23.878Z,10.30
2017-10-22T14:03:33.823Z,10.31
2017-10-22T14:04:42.867Z,10.32
2017-10-22T14:05:52.356Z,10.34
2017-10-22T14:07:01.881Z,10.31
2017-10-22T14:08:11.509Z,10.28
2017-10-22T14:09:20.951Z,10.28
2017-10-22T14:10:30.447Z,10.27
2017-10-22T14:11:40.019Z,10.27
2017-10-22T14:12:49.549Z,10.26
2017-10-22T14:13:59.095Z,10.23
2017-10-22T14:15:08.560Z,10.19
2017-10-22T14:16:18.050Z,10.22
2017-10-22T14:17:27.669Z,10.19
2017-10-22T14:18:37.103Z,10.22
2017-10-22T14:19:46.651Z,10.19
2017-10-22T14:20:56.158Z,10.18
2017-10-22T14:22:05.766Z,10.18
2017-10-22T14:23:15.296Z,10.15
2017-10-22T14:24:24.724Z,10.14
2017-10-22T14:25:34.281Z,10.10
2017-10-22T14:26:44.736Z,10.09
2017-10-22T14:27:53.269Z,10.06
2017-10-22T14:29:02.903Z,10.01
2017-10-22T14:30:12.304Z,10.01
2017-10-22T14:31:21.836Z,10.01
2017-10-22T14:32:31.360Z,9.98
2017-10-22T14:33:40.892Z,9.98
2017-10-22T14:34:50.374Z,9.97
2017-10-22T14:35:59.865Z,10.00
2017-10-22T14:37:09.482Z,9.98
2017-10-22T14:38:18.889Z,9.97
2017-10-22T14:39:28.465Z,9.94
2017-10-22T14:40:37.940Z,9.93
2017-10-22T14:41:47.434Z,9.93
2017-10-22T14:42:56.944Z,9.94
2017-10-22T14:44:06.580Z,9.96
2017-10-22T14:45:15.991Z,9.94
2017-10-22T14:46:25.522Z,9.97
2017-10-22T14:47:35.052Z,9.97
2017-10-22T14:48:44.510Z,9.98
2017-10-22T14:49:54.129Z,10.02
2017-10-22T14:51:03.546Z,10.05
2017-10-22T14:52:13.080Z,10.05
2017-10-22T14:53:22.678Z,10.06
2017-10-22T14:54:32.156Z,10.05
2017-10-22T14:55:41.599Z,10.05
2017-10-22T14:56:51.124Z,10.09
2017-10-22T14:58:00.649Z,10.10
2017-10-22T14:59:10.423Z,10.10
2017-10-22T15:00:19.681Z,10.14
2017-10-22T15:01:29.180Z,10.15
2017-10-22T15:02:38.706Z,10.18
2017-10-22T15:03:48.221Z,10.17
2017-10-22T15:04:57.799Z,10.18
2017-10-22T15:06:07.272Z,10.18
2017-10-22T15:07:16.792Z,10.18
2017-10-22T15:08:26.600Z,10.19